Kingsbury, Nevada
Current Conditions -  °F | °C
As of 6:53 PM on Monday 20 Oct 2014 (Local Time) from KTVL Reporting Station
Clear Clear  
Wind Chill: 12°   Ceiling: Unl
Heat Index: 12°   Visibility: 10mi
Dew Point:   Wind: 16mph
Humidity: 50%   Direction: 210°SSW
Pressure: 29.98"   Gusts: 25mph
Location:  39.0164°N, 119.925°W
Report Text: KTVL 210153Z AUTO 21014G22KT 10SM CLR 12/02 A2998 RMK AO2 SLP119 T01170017
Loading
Personal Weather Stations






























Interactive Weather Map
Tropical Storm Tracking
New forecast layout! Learn more

10-Day Weather Forecast

Advertisements
Track Severe Weather on mobile